sensor_id;sensor_type;location;lat;lon;timestamp;P1;durP1;ratioP1;P2;durP2;ratioP2
30707;SDS011;17458;48.958;8.284;2023-11-21T00:02:00;9.30;;;2.65;;
30707;SDS011;17458;48.958;8.284;2023-11-21T00:04:44;4.50;;;2.35;;
30707;SDS011;17458;48.958;8.284;2023-11-21T00:07:29;15.65;;;5.30;;
30707;SDS011;17458;48.958;8.284;2023-11-21T00:10:13;4.57;;;2.65;;
30707;SDS011;17458;48.958;8.284;2023-11-21T00:12:58;7.88;;;2.13;;
30707;SDS011;17458;48.958;8.284;2023-11-21T00:15:42;6.22;;;2.70;;
30707;SDS011;17458;48.958;8.284;2023-11-21T00:18:26;3.47;;;1.83;;
30707;SDS011;17458;48.958;8.284;2023-11-21T00:21:10;13.25;;;2.47;;
30707;SDS011;17458;48.958;8.284;2023-11-21T00:23:56;6.25;;;2.70;;
30707;SDS011;17458;48.958;8.284;2023-11-21T00:26:40;2.47;;;1.85;;
30707;SDS011;17458;48.958;8.284;2023-11-21T00:29:24;11.25;;;2.72;;
30707;SDS011;17458;48.958;8.284;2023-11-21T00:32:09;6.60;;;2.22;;
30707;SDS011;17458;48.958;8.284;2023-11-21T00:34:53;6.47;;;2.35;;
30707;SDS011;17458;48.958;8.284;2023-11-21T00:37:39;6.10;;;2.10;;
30707;SDS011;17458;48.958;8.284;2023-11-21T00:40:23;3.38;;;1.50;;
30707;SDS011;17458;48.958;8.284;2023-11-21T00:43:08;6.38;;;2.03;;
30707;SDS011;17458;48.958;8.284;2023-11-21T00:45:52;5.38;;;2.22;;
30707;SDS011;17458;48.958;8.284;2023-11-21T00:48:37;3.90;;;1.95;;
30707;SDS011;17458;48.958;8.284;2023-11-21T00:51:21;10.65;;;2.42;;
30707;SDS011;17458;48.958;8.284;2023-11-21T00:54:05;5.93;;;1.98;;
30707;SDS011;17458;48.958;8.284;2023-11-21T00:56:50;2.60;;;1.77;;
30707;SDS011;17458;48.958;8.284;2023-11-21T00:59:34;6.07;;;1.90;;
30707;SDS011;17458;48.958;8.284;2023-11-21T01:02:19;9.10;;;1.80;;
30707;SDS011;17458;48.958;8.284;2023-11-21T01:05:03;2.53;;;1.92;;
30707;SDS011;17458;48.958;8.284;2023-11-21T01:07:47;7.35;;;1.80;;
30707;SDS011;17458;48.958;8.284;2023-11-21T01:10:31;7.75;;;2.15;;
30707;SDS011;17458;48.958;8.284;2023-11-21T01:13:15;4.05;;;1.98;;
30707;SDS011;17458;48.958;8.284;2023-11-21T01:15:59;12.50;;;2.47;;
30707;SDS011;17458;48.958;8.284;2023-11-21T01:18:43;4.60;;;2.15;;
30707;SDS011;17458;48.958;8.284;2023-11-21T01:21:27;5.90;;;2.15;;
30707;SDS011;17458;48.958;8.284;2023-11-21T01:24:11;6.40;;;2.20;;
30707;SDS011;17458;48.958;8.284;2023-11-21T01:26:56;10.07;;;3.13;;
30707;SDS011;17458;48.958;8.284;2023-11-21T01:29:39;1.80;;;1.63;;
30707;SDS011;17458;48.958;8.284;2023-11-21T01:32:23;7.47;;;2.53;;
30707;SDS011;17458;48.958;8.284;2023-11-21T01:35:07;6.47;;;1.92;;
30707;SDS011;17458;48.958;8.284;2023-11-21T01:37:53;6.03;;;1.98;;
30707;SDS011;17458;48.958;8.284;2023-11-21T01:40:37;3.08;;;1.88;;
30707;SDS011;17458;48.958;8.284;2023-11-21T01:43:21;9.63;;;1.95;;
30707;SDS011;17458;48.958;8.284;2023-11-21T01:46:05;10.38;;;2.55;;
30707;SDS011;17458;48.958;8.284;2023-11-21T01:48:51;4.47;;;1.50;;
30707;SDS011;17458;48.958;8.284;2023-11-21T01:51:36;4.28;;;2.20;;
30707;SDS011;17458;48.958;8.284;2023-11-21T01:54:21;8.25;;;3.03;;
30707;SDS011;17458;48.958;8.284;2023-11-21T01:57:06;2.25;;;1.50;;
30707;SDS011;17458;48.958;8.284;2023-11-21T01:59:50;6.80;;;2.22;;
30707;SDS011;17458;48.958;8.284;2023-11-21T02:02:37;12.15;;;2.50;;
30707;SDS011;17458;48.958;8.284;2023-11-21T02:05:21;3.05;;;2.05;;
30707;SDS011;17458;48.958;8.284;2023-11-21T02:08:07;7.38;;;3.45;;
30707;SDS011;17458;48.958;8.284;2023-11-21T02:10:53;4.57;;;2.10;;
30707;SDS011;17458;48.958;8.284;2023-11-21T02:13:37;3.95;;;1.90;;
30707;SDS011;17458;48.958;8.284;2023-11-21T02:16:21;9.25;;;2.55;;
30707;SDS011;17458;48.958;8.284;2023-11-21T02:19:06;9.55;;;2.35;;
30707;SDS011;17458;48.958;8.284;2023-11-21T02:21:53;9.38;;;2.63;;
30707;SDS011;17458;48.958;8.284;2023-11-21T02:24:37;13.80;;;2.15;;
30707;SDS011;17458;48.958;8.284;2023-11-21T02:27:26;10.45;;;2.25;;
30707;SDS011;17458;48.958;8.284;2023-11-21T02:30:11;5.30;;;1.98;;
30707;SDS011;17458;48.958;8.284;2023-11-21T02:32:57;6.53;;;2.35;;
30707;SDS011;17458;48.958;8.284;2023-11-21T02:35:42;10.95;;;2.28;;
30707;SDS011;17458;48.958;8.284;2023-11-21T02:38:27;2.25;;;1.75;;
30707;SDS011;17458;48.958;8.284;2023-11-21T02:41:11;3.78;;;1.45;;
30707;SDS011;17458;48.958;8.284;2023-11-21T02:43:55;5.25;;;2.13;;
30707;SDS011;17458;48.958;8.284;2023-11-21T02:46:39;3.22;;;1.60;;
30707;SDS011;17458;48.958;8.284;2023-11-21T02:49:23;5.68;;;2.58;;
30707;SDS011;17458;48.958;8.284;2023-11-21T02:52:07;3.08;;;2.05;;
30707;SDS011;17458;48.958;8.284;2023-11-21T02:54:52;1.80;;;1.63;;
30707;SDS011;17458;48.958;8.284;2023-11-21T02:57:37;4.05;;;2.03;;
30707;SDS011;17458;48.958;8.284;2023-11-21T03:00:21;1.67;;;1.50;;
30707;SDS011;17458;48.958;8.284;2023-11-21T03:03:07;4.25;;;1.85;;
30707;SDS011;17458;48.958;8.284;2023-11-21T03:05:51;4.03;;;2.20;;
30707;SDS011;17458;48.958;8.284;2023-11-21T03:08:35;7.85;;;2.05;;
30707;SDS011;17458;48.958;8.284;2023-11-21T03:11:20;5.43;;;2.30;;
30707;SDS011;17458;48.958;8.284;2023-11-21T03:14:03;2.05;;;1.73;;
30707;SDS011;17458;48.958;8.284;2023-11-21T03:16:48;8.90;;;2.20;;
30707;SDS011;17458;48.958;8.284;2023-11-21T03:19:33;4.55;;;1.92;;
30707;SDS011;17458;48.958;8.284;2023-11-21T03:22:17;9.32;;;2.47;;
30707;SDS011;17458;48.958;8.284;2023-11-21T03:25:01;2.33;;;1.88;;
30707;SDS011;17458;48.958;8.284;2023-11-21T03:27:45;2.55;;;1.77;;
30707;SDS011;17458;48.958;8.284;2023-11-21T03:30:29;5.80;;;1.60;;
30707;SDS011;17458;48.958;8.284;2023-11-21T03:33:13;3.80;;;2.10;;
30707;SDS011;17458;48.958;8.284;2023-11-21T03:35:56;4.47;;;1.85;;
30707;SDS011;17458;48.958;8.284;2023-11-21T03:38:40;1.90;;;1.80;;
30707;SDS011;17458;48.958;8.284;2023-11-21T03:41:25;3.55;;;2.58;;
30707;SDS011;17458;48.958;8.284;2023-11-21T03:44:09;2.67;;;2.00;;
30707;SDS011;17458;48.958;8.284;2023-11-21T03:46:54;4.22;;;1.80;;
30707;SDS011;17458;48.958;8.284;2023-11-21T03:49:38;4.05;;;1.92;;
30707;SDS011;17458;48.958;8.284;2023-11-21T03:52:23;2.17;;;1.88;;
30707;SDS011;17458;48.958;8.284;2023-11-21T03:55:08;3.78;;;1.67;;
30707;SDS011;17458;48.958;8.284;2023-11-21T03:57:54;1.65;;;1.55;;
30707;SDS011;17458;48.958;8.284;2023-11-21T04:00:38;1.80;;;1.52;;
30707;SDS011;17458;48.958;8.284;2023-11-21T04:03:22;7.53;;;1.70;;
30707;SDS011;17458;48.958;8.284;2023-11-21T04:06:06;3.10;;;2.15;;
30707;SDS011;17458;48.958;8.284;2023-11-21T04:08:51;4.22;;;1.83;;
30707;SDS011;17458;48.958;8.284;2023-11-21T04:11:35;3.40;;;1.70;;
30707;SDS011;17458;48.958;8.284;2023-11-21T04:14:19;7.97;;;1.98;;
30707;SDS011;17458;48.958;8.284;2023-11-21T04:17:03;7.15;;;2.10;;
30707;SDS011;17458;48.958;8.284;2023-11-21T04:19:48;8.30;;;2.05;;
30707;SDS011;17458;48.958;8.284;2023-11-21T04:22:32;5.07;;;2.15;;
30707;SDS011;17458;48.958;8.284;2023-11-21T04:25:17;2.03;;;1.73;;
30707;SDS011;17458;48.958;8.284;2023-11-21T04:28:01;8.38;;;2.05;;
30707;SDS011;17458;48.958;8.284;2023-11-21T04:30:45;4.57;;;1.67;;
30707;SDS011;17458;48.958;8.284;2023-11-21T04:33:28;5.03;;;1.70;;
30707;SDS011;17458;48.958;8.284;2023-11-21T04:36:12;7.65;;;3.22;;
30707;SDS011;17458;48.958;8.284;2023-11-21T04:38:57;12.02;;;2.35;;
30707;SDS011;17458;48.958;8.284;2023-11-21T04:41:41;3.20;;;1.85;;
30707;SDS011;17458;48.958;8.284;2023-11-21T04:44:25;3.30;;;2.15;;
30707;SDS011;17458;48.958;8.284;2023-11-21T04:47:09;2.53;;;2.05;;
30707;SDS011;17458;48.958;8.284;2023-11-21T04:49:54;7.15;;;2.30;;
30707;SDS011;17458;48.958;8.284;2023-11-21T04:52:37;7.22;;;2.42;;
30707;SDS011;17458;48.958;8.284;2023-11-21T04:55:21;3.53;;;2.10;;
30707;SDS011;17458;48.958;8.284;2023-11-21T04:58:05;5.90;;;2.47;;
30707;SDS011;17458;48.958;8.284;2023-11-21T05:00:49;5.85;;;2.42;;
30707;SDS011;17458;48.958;8.284;2023-11-21T05:03:33;9.90;;;3.15;;
30707;SDS011;17458;48.958;8.284;2023-11-21T05:06:18;4.20;;;2.60;;
30707;SDS011;17458;48.958;8.284;2023-11-21T05:09:02;2.75;;;2.03;;
30707;SDS011;17458;48.958;8.284;2023-11-21T05:11:47;6.38;;;2.58;;
30707;SDS011;17458;48.958;8.284;2023-11-21T05:14:31;5.45;;;2.75;;
30707;SDS011;17458;48.958;8.284;2023-11-21T05:17:15;3.28;;;2.33;;
30707;SDS011;17458;48.958;8.284;2023-11-21T05:19:59;4.72;;;2.30;;
30707;SDS011;17458;48.958;8.284;2023-11-21T05:22:43;3.88;;;2.40;;
30707;SDS011;17458;48.958;8.284;2023-11-21T05:25:27;4.78;;;2.65;;
30707;SDS011;17458;48.958;8.284;2023-11-21T05:28:12;4.80;;;2.67;;
30707;SDS011;17458;48.958;8.284;2023-11-21T05:30:56;2.53;;;2.33;;
30707;SDS011;17458;48.958;8.284;2023-11-21T05:33:40;8.45;;;2.17;;
30707;SDS011;17458;48.958;8.284;2023-11-21T05:36:25;4.40;;;2.65;;
30707;SDS011;17458;48.958;8.284;2023-11-21T05:39:08;6.10;;;3.05;;
30707;SDS011;17458;48.958;8.284;2023-11-21T05:41:54;3.10;;;2.63;;
30707;SDS011;17458;48.958;8.284;2023-11-21T05:44:41;2.85;;;2.58;;
30707;SDS011;17458;48.958;8.284;2023-11-21T05:47:26;6.43;;;2.60;;
30707;SDS011;17458;48.958;8.284;2023-11-21T05:50:12;3.67;;;3.05;;
30707;SDS011;17458;48.958;8.284;2023-11-21T05:52:59;4.93;;;3.25;;
30707;SDS011;17458;48.958;8.284;2023-11-21T05:55:44;3.50;;;2.30;;
30707;SDS011;17458;48.958;8.284;2023-11-21T05:58:28;3.83;;;2.65;;
30707;SDS011;17458;48.958;8.284;2023-11-21T06:01:12;3.28;;;2.25;;
30707;SDS011;17458;48.958;8.284;2023-11-21T06:03:56;2.50;;;2.30;;
30707;SDS011;17458;48.958;8.284;2023-11-21T06:06:41;3.53;;;2.50;;
30707;SDS011;17458;48.958;8.284;2023-11-21T06:09:25;5.72;;;2.67;;
30707;SDS011;17458;48.958;8.284;2023-11-21T06:12:09;4.75;;;2.70;;
30707;SDS011;17458;48.958;8.284;2023-11-21T06:14:53;4.78;;;2.92;;
30707;SDS011;17458;48.958;8.284;2023-11-21T06:17:37;5.40;;;2.75;;
30707;SDS011;17458;48.958;8.284;2023-11-21T06:20:21;7.80;;;2.88;;
30707;SDS011;17458;48.958;8.284;2023-11-21T06:23:06;10.90;;;3.10;;
30707;SDS011;17458;48.958;8.284;2023-11-21T06:25:50;4.90;;;2.70;;
30707;SDS011;17458;48.958;8.284;2023-11-21T06:28:34;3.20;;;2.80;;
30707;SDS011;17458;48.958;8.284;2023-11-21T06:31:18;9.40;;;3.30;;
30707;SDS011;17458;48.958;8.284;2023-11-21T06:34:02;7.03;;;3.15;;
30707;SDS011;17458;48.958;8.284;2023-11-21T06:36:47;8.00;;;3.10;;
30707;SDS011;17458;48.958;8.284;2023-11-21T06:39:31;4.45;;;3.08;;
30707;SDS011;17458;48.958;8.284;2023-11-21T06:42:15;8.52;;;3.30;;
30707;SDS011;17458;48.958;8.284;2023-11-21T06:44:59;6.07;;;3.88;;
30707;SDS011;17458;48.958;8.284;2023-11-21T06:47:47;4.95;;;3.92;;
30707;SDS011;17458;48.958;8.284;2023-11-21T06:50:32;8.68;;;3.72;;
30707;SDS011;17458;48.958;8.284;2023-11-21T06:53:16;9.00;;;6.30;;
30707;SDS011;17458;48.958;8.284;2023-11-21T06:56:00;5.93;;;4.22;;
30707;SDS011;17458;48.958;8.284;2023-11-21T06:58:45;6.82;;;4.72;;
30707;SDS011;17458;48.958;8.284;2023-11-21T07:01:30;9.43;;;4.30;;
30707;SDS011;17458;48.958;8.284;2023-11-21T07:04:16;10.20;;;4.68;;
30707;SDS011;17458;48.958;8.284;2023-11-21T07:07:02;8.20;;;4.60;;
30707;SDS011;17458;48.958;8.284;2023-11-21T07:09:47;5.30;;;4.45;;
30707;SDS011;17458;48.958;8.284;2023-11-21T07:12:32;8.13;;;5.47;;
30707;SDS011;17458;48.958;8.284;2023-11-21T07:15:16;5.25;;;4.75;;
30707;SDS011;17458;48.958;8.284;2023-11-21T07:18:00;5.35;;;4.50;;
30707;SDS011;17458;48.958;8.284;2023-11-21T07:20:44;13.38;;;4.85;;
30707;SDS011;17458;48.958;8.284;2023-11-21T07:23:28;6.97;;;4.03;;
30707;SDS011;17458;48.958;8.284;2023-11-21T07:26:12;6.88;;;4.38;;
30707;SDS011;17458;48.958;8.284;2023-11-21T07:28:56;6.18;;;3.80;;
30707;SDS011;17458;48.958;8.284;2023-11-21T07:31:40;13.13;;;4.25;;
30707;SDS011;17458;48.958;8.284;2023-11-21T07:34:24;5.72;;;4.18;;
30707;SDS011;17458;48.958;8.284;2023-11-21T07:37:08;6.18;;;4.88;;
30707;SDS011;17458;48.958;8.284;2023-11-21T07:39:52;7.82;;;4.40;;
30707;SDS011;17458;48.958;8.284;2023-11-21T07:42:40;7.05;;;4.60;;
30707;SDS011;17458;48.958;8.284;2023-11-21T07:45:26;8.77;;;4.57;;
30707;SDS011;17458;48.958;8.284;2023-11-21T07:48:11;6.88;;;4.28;;
30707;SDS011;17458;48.958;8.284;2023-11-21T07:50:55;11.75;;;4.28;;
30707;SDS011;17458;48.958;8.284;2023-11-21T07:53:39;13.10;;;5.35;;
30707;SDS011;17458;48.958;8.284;2023-11-21T07:56:23;6.72;;;4.47;;
30707;SDS011;17458;48.958;8.284;2023-11-21T07:59:07;10.07;;;6.05;;
30707;SDS011;17458;48.958;8.284;2023-11-21T08:01:51;9.05;;;5.25;;
30707;SDS011;17458;48.958;8.284;2023-11-21T08:04:35;9.80;;;4.68;;
30707;SDS011;17458;48.958;8.284;2023-11-21T08:07:19;7.63;;;5.18;;
30707;SDS011;17458;48.958;8.284;2023-11-21T08:10:03;9.77;;;4.55;;
30707;SDS011;17458;48.958;8.284;2023-11-21T08:12:48;7.50;;;5.22;;
30707;SDS011;17458;48.958;8.284;2023-11-21T08:15:34;6.20;;;4.93;;
30707;SDS011;17458;48.958;8.284;2023-11-21T08:18:19;6.80;;;5.50;;
30707;SDS011;17458;48.958;8.284;2023-11-21T08:21:02;6.65;;;3.92;;
30707;SDS011;17458;48.958;8.284;2023-11-21T08:23:47;3.88;;;3.33;;
30707;SDS011;17458;48.958;8.284;2023-11-21T08:26:37;4.97;;;3.95;;
30707;SDS011;17458;48.958;8.284;2023-11-21T08:29:21;5.20;;;3.90;;
30707;SDS011;17458;48.958;8.284;2023-11-21T08:32:07;7.35;;;3.65;;
30707;SDS011;17458;48.958;8.284;2023-11-21T08:34:50;5.68;;;4.20;;
30707;SDS011;17458;48.958;8.284;2023-11-21T08:37:34;4.70;;;3.75;;
30707;SDS011;17458;48.958;8.284;2023-11-21T08:40:21;8.57;;;4.63;;
30707;SDS011;17458;48.958;8.284;2023-11-21T08:43:05;6.53;;;4.28;;
30707;SDS011;17458;48.958;8.284;2023-11-21T08:45:50;8.25;;;4.07;;
30707;SDS011;17458;48.958;8.284;2023-11-21T08:48:37;7.28;;;4.88;;
30707;SDS011;17458;48.958;8.284;2023-11-21T08:51:21;4.53;;;4.03;;
30707;SDS011;17458;48.958;8.284;2023-11-21T08:54:05;5.70;;;3.75;;
30707;SDS011;17458;48.958;8.284;2023-11-21T08:56:52;4.35;;;3.60;;
30707;SDS011;17458;48.958;8.284;2023-11-21T08:59:38;8.40;;;4.53;;
30707;SDS011;17458;48.958;8.284;2023-11-21T09:02:22;4.78;;;3.80;;
30707;SDS011;17458;48.958;8.284;2023-11-21T09:05:07;3.63;;;3.17;;
30707;SDS011;17458;48.958;8.284;2023-11-21T09:07:52;4.85;;;4.13;;
30707;SDS011;17458;48.958;8.284;2023-11-21T09:10:36;10.10;;;3.65;;
30707;SDS011;17458;48.958;8.284;2023-11-21T09:13:20;3.53;;;2.97;;
30707;SDS011;17458;48.958;8.284;2023-11-21T09:16:04;5.78;;;3.08;;
30707;SDS011;17458;48.958;8.284;2023-11-21T09:18:49;6.63;;;4.03;;
30707;SDS011;17458;48.958;8.284;2023-11-21T09:21:33;7.38;;;3.78;;
30707;SDS011;17458;48.958;8.284;2023-11-21T09:24:18;6.00;;;3.88;;
30707;SDS011;17458;48.958;8.284;2023-11-21T09:27:02;3.90;;;3.42;;
30707;SDS011;17458;48.958;8.284;2023-11-21T09:29:46;6.63;;;4.47;;
30707;SDS011;17458;48.958;8.284;2023-11-21T09:32:31;5.25;;;4.57;;
30707;SDS011;17458;48.958;8.284;2023-11-21T09:35:15;6.50;;;4.25;;
30707;SDS011;17458;48.958;8.284;2023-11-21T09:38:01;6.85;;;4.18;;
30707;SDS011;17458;48.958;8.284;2023-11-21T09:40:49;7.32;;;4.45;;
30707;SDS011;17458;48.958;8.284;2023-11-21T09:43:37;6.22;;;4.90;;
30707;SDS011;17458;48.958;8.284;2023-11-21T09:46:22;8.07;;;4.85;;
30707;SDS011;17458;48.958;8.284;2023-11-21T09:49:08;5.25;;;4.55;;
30707;SDS011;17458;48.958;8.284;2023-11-21T09:51:56;5.72;;;4.47;;
30707;SDS011;17458;48.958;8.284;2023-11-21T09:54:42;8.27;;;5.43;;
30707;SDS011;17458;48.958;8.284;2023-11-21T09:57:26;4.72;;;4.22;;
30707;SDS011;17458;48.958;8.284;2023-11-21T10:00:11;6.72;;;4.38;;
30707;SDS011;17458;48.958;8.284;2023-11-21T10:02:57;5.40;;;4.35;;
30707;SDS011;17458;48.958;8.284;2023-11-21T10:05:42;9.15;;;4.90;;
30707;SDS011;17458;48.958;8.284;2023-11-21T10:08:26;5.10;;;4.10;;
30707;SDS011;17458;48.958;8.284;2023-11-21T10:11:11;7.85;;;5.20;;
30707;SDS011;17458;48.958;8.284;2023-11-21T10:13:58;4.95;;;4.45;;
30707;SDS011;17458;48.958;8.284;2023-11-21T10:16:44;7.88;;;4.63;;
30707;SDS011;17458;48.958;8.284;2023-11-21T10:19:31;11.90;;;4.35;;
30707;SDS011;17458;48.958;8.284;2023-11-21T10:22:16;10.80;;;5.32;;
30707;SDS011;17458;48.958;8.284;2023-11-21T10:25:01;8.05;;;4.85;;
30707;SDS011;17458;48.958;8.284;2023-11-21T10:27:46;5.28;;;4.18;;
30707;SDS011;17458;48.958;8.284;2023-11-21T10:30:35;9.02;;;5.20;;
30707;SDS011;17458;48.958;8.284;2023-11-21T10:33:27;6.80;;;4.40;;
30707;SDS011;17458;48.958;8.284;2023-11-21T10:36:12;5.35;;;4.38;;
30707;SDS011;17458;48.958;8.284;2023-11-21T10:38:56;6.13;;;4.65;;
30707;SDS011;17458;48.958;8.284;2023-11-21T10:41:40;6.78;;;3.88;;
30707;SDS011;17458;48.958;8.284;2023-11-21T10:44:24;7.07;;;4.68;;
30707;SDS011;17458;48.958;8.284;2023-11-21T10:47:09;4.72;;;3.90;;
30707;SDS011;17458;48.958;8.284;2023-11-21T10:49:55;5.72;;;4.22;;
30707;SDS011;17458;48.958;8.284;2023-11-21T10:52:42;5.03;;;3.60;;
30707;SDS011;17458;48.958;8.284;2023-11-21T10:55:31;5.85;;;4.60;;
30707;SDS011;17458;48.958;8.284;2023-11-21T10:58:16;9.75;;;4.03;;
30707;SDS011;17458;48.958;8.284;2023-11-21T11:01:01;4.50;;;3.58;;
30707;SDS011;17458;48.958;8.284;2023-11-21T11:03:50;15.13;;;4.07;;
30707;SDS011;17458;48.958;8.284;2023-11-21T11:06:34;4.05;;;3.65;;
30707;SDS011;17458;48.958;8.284;2023-11-21T11:09:19;3.53;;;3.22;;
30707;SDS011;17458;48.958;8.284;2023-11-21T11:12:04;3.25;;;2.90;;
30707;SDS011;17458;48.958;8.284;2023-11-21T11:14:49;4.65;;;3.05;;
30707;SDS011;17458;48.958;8.284;2023-11-21T11:17:36;2.55;;;2.35;;
30707;SDS011;17458;48.958;8.284;2023-11-21T11:20:23;8.40;;;2.65;;
30707;SDS011;17458;48.958;8.284;2023-11-21T11:35:02;5.22;;;3.60;;
30707;SDS011;17458;48.958;8.284;2023-11-21T11:37:53;4.18;;;3.53;;
30707;SDS011;17458;48.958;8.284;2023-11-21T11:40:38;9.30;;;4.88;;
30707;SDS011;17458;48.958;8.284;2023-11-21T11:43:30;6.43;;;3.70;;
30707;SDS011;17458;48.958;8.284;2023-11-21T11:46:16;4.15;;;3.70;;
30707;SDS011;17458;48.958;8.284;2023-11-21T11:49:03;4.32;;;3.92;;
30707;SDS011;17458;48.958;8.284;2023-11-21T11:51:47;5.72;;;4.07;;
30707;SDS011;17458;48.958;8.284;2023-11-21T11:54:35;4.13;;;3.63;;
30707;SDS011;17458;48.958;8.284;2023-11-21T11:57:23;5.57;;;4.22;;
30707;SDS011;17458;48.958;8.284;2023-11-21T12:02:55;4.65;;;4.13;;
30707;SDS011;17458;48.958;8.284;2023-11-21T12:05:43;5.40;;;4.70;;
30707;SDS011;17458;48.958;8.284;2023-11-21T12:08:30;8.57;;;4.38;;
30707;SDS011;17458;48.958;8.284;2023-11-21T12:11:17;6.78;;;4.80;;
30707;SDS011;17458;48.958;8.284;2023-11-21T12:14:01;6.30;;;5.10;;
30707;SDS011;17458;48.958;8.284;2023-11-21T12:16:49;6.15;;;4.47;;
30707;SDS011;17458;48.958;8.284;2023-11-21T12:19:33;5.65;;;4.80;;
30707;SDS011;17458;48.958;8.284;2023-11-21T12:22:17;5.10;;;4.38;;
30707;SDS011;17458;48.958;8.284;2023-11-21T12:25:02;12.55;;;4.68;;
30707;SDS011;17458;48.958;8.284;2023-11-21T12:27:51;6.05;;;4.78;;
30707;SDS011;17458;48.958;8.284;2023-11-21T12:30:36;5.13;;;4.38;;
30707;SDS011;17458;48.958;8.284;2023-11-21T12:33:21;6.13;;;4.93;;
30707;SDS011;17458;48.958;8.284;2023-11-21T12:36:06;4.80;;;4.30;;
30707;SDS011;17458;48.958;8.284;2023-11-21T12:38:54;10.48;;;4.15;;
30707;SDS011;17458;48.958;8.284;2023-11-21T12:41:38;7.53;;;4.97;;
30707;SDS011;17458;48.958;8.284;2023-11-21T12:44:23;7.07;;;4.68;;
30707;SDS011;17458;48.958;8.284;2023-11-21T12:47:07;6.68;;;4.68;;
30707;SDS011;17458;48.958;8.284;2023-11-21T12:49:51;5.55;;;4.68;;
30707;SDS011;17458;48.958;8.284;2023-11-21T12:52:35;8.52;;;4.63;;
30707;SDS011;17458;48.958;8.284;2023-11-21T12:55:20;6.53;;;3.92;;
30707;SDS011;17458;48.958;8.284;2023-11-21T12:58:06;7.88;;;4.68;;
30707;SDS011;17458;48.958;8.284;2023-11-21T13:00:55;5.40;;;3.65;;
30707;SDS011;17458;48.958;8.284;2023-11-21T13:03:41;5.47;;;4.40;;
30707;SDS011;17458;48.958;8.284;2023-11-21T13:06:28;6.43;;;4.05;;
30707;SDS011;17458;48.958;8.284;2023-11-21T13:09:17;5.47;;;4.57;;
30707;SDS011;17458;48.958;8.284;2023-11-21T13:12:06;5.32;;;4.20;;
30707;SDS011;17458;48.958;8.284;2023-11-21T13:14:52;5.32;;;4.10;;
30707;SDS011;17458;48.958;8.284;2023-11-21T13:17:36;6.30;;;4.28;;
30707;SDS011;17458;48.958;8.284;2023-11-21T13:20:20;4.93;;;4.25;;
30707;SDS011;17458;48.958;8.284;2023-11-21T13:23:07;6.43;;;4.63;;
30707;SDS011;17458;48.958;8.284;2023-11-21T13:25:54;6.25;;;4.40;;
30707;SDS011;17458;48.958;8.284;2023-11-21T13:28:38;18.42;;;6.95;;
30707;SDS011;17458;48.958;8.284;2023-11-21T13:31:25;6.93;;;5.05;;
30707;SDS011;17458;48.958;8.284;2023-11-21T13:34:15;4.82;;;4.05;;
30707;SDS011;17458;48.958;8.284;2023-11-21T13:37:03;6.95;;;4.65;;
30707;SDS011;17458;48.958;8.284;2023-11-21T13:39:51;4.75;;;3.58;;
30707;SDS011;17458;48.958;8.284;2023-11-21T13:42:36;6.32;;;3.70;;
30707;SDS011;17458;48.958;8.284;2023-11-21T13:45:21;4.57;;;3.45;;
30707;SDS011;17458;48.958;8.284;2023-11-21T13:48:11;4.93;;;4.10;;
30707;SDS011;17458;48.958;8.284;2023-11-21T13:51:03;7.70;;;4.88;;
30707;SDS011;17458;48.958;8.284;2023-11-21T13:54:04;6.80;;;3.65;;
30707;SDS011;17458;48.958;8.284;2023-11-21T13:56:52;3.40;;;3.10;;
30707;SDS011;17458;48.958;8.284;2023-11-21T13:59:38;4.00;;;3.42;;
30707;SDS011;17458;48.958;8.284;2023-11-21T14:02:22;3.85;;;3.17;;
30707;SDS011;17458;48.958;8.284;2023-11-21T14:05:15;4.10;;;3.55;;
30707;SDS011;17458;48.958;8.284;2023-11-21T14:08:05;4.55;;;3.88;;
30707;SDS011;17458;48.958;8.284;2023-11-21T14:10:49;4.93;;;3.35;;
30707;SDS011;17458;48.958;8.284;2023-11-21T14:13:37;8.23;;;3.58;;
30707;SDS011;17458;48.958;8.284;2023-11-21T14:16:21;8.15;;;3.97;;
30707;SDS011;17458;48.958;8.284;2023-11-21T14:19:06;4.93;;;3.75;;
30707;SDS011;17458;48.958;8.284;2023-11-21T14:21:59;6.57;;;4.50;;
30707;SDS011;17458;48.958;8.284;2023-11-21T14:24:44;6.43;;;4.03;;
30707;SDS011;17458;48.958;8.284;2023-11-21T14:27:30;6.78;;;4.15;;
30707;SDS011;17458;48.958;8.284;2023-11-21T14:30:16;4.53;;;4.10;;
30707;SDS011;17458;48.958;8.284;2023-11-21T14:33:02;7.13;;;4.03;;
30707;SDS011;17458;48.958;8.284;2023-11-21T14:35:46;5.78;;;4.13;;
30707;SDS011;17458;48.958;8.284;2023-11-21T14:38:31;5.68;;;3.83;;
30707;SDS011;17458;48.958;8.284;2023-11-21T14:41:15;4.97;;;4.35;;
30707;SDS011;17458;48.958;8.284;2023-11-21T14:43:58;4.03;;;3.42;;
30707;SDS011;17458;48.958;8.284;2023-11-21T14:46:43;4.93;;;3.45;;
30707;SDS011;17458;48.958;8.284;2023-11-21T14:49:33;9.30;;;4.07;;
30707;SDS011;17458;48.958;8.284;2023-11-21T14:52:33;3.97;;;3.45;;
30707;SDS011;17458;48.958;8.284;2023-11-21T14:55:17;9.68;;;3.35;;
30707;SDS011;17458;48.958;8.284;2023-11-21T14:58:10;5.65;;;2.88;;
30707;SDS011;17458;48.958;8.284;2023-11-21T15:00:59;4.95;;;2.63;;
30707;SDS011;17458;48.958;8.284;2023-11-21T15:03:44;3.90;;;3.28;;
30707;SDS011;17458;48.958;8.284;2023-11-21T15:06:32;2.58;;;2.38;;
30707;SDS011;17458;48.958;8.284;2023-11-21T15:09:17;4.60;;;3.42;;
30707;SDS011;17458;48.958;8.284;2023-11-21T15:12:18;4.53;;;2.85;;
30707;SDS011;17458;48.958;8.284;2023-11-21T15:15:04;9.50;;;2.95;;
30707;SDS011;17458;48.958;8.284;2023-11-21T15:17:51;3.38;;;2.95;;
30707;SDS011;17458;48.958;8.284;2023-11-21T15:20:35;5.22;;;3.42;;
30707;SDS011;17458;48.958;8.284;2023-11-21T15:23:19;3.10;;;2.60;;
30707;SDS011;17458;48.958;8.284;2023-11-21T15:26:03;3.83;;;3.30;;
30707;SDS011;17458;48.958;8.284;2023-11-21T15:28:48;3.58;;;2.75;;
30707;SDS011;17458;48.958;8.284;2023-11-21T15:31:33;5.75;;;3.20;;
30707;SDS011;17458;48.958;8.284;2023-11-21T15:34:17;2.53;;;2.30;;
30707;SDS011;17458;48.958;8.284;2023-11-21T15:37:01;2.47;;;2.20;;
30707;SDS011;17458;48.958;8.284;2023-11-21T15:39:46;2.75;;;2.10;;
30707;SDS011;17458;48.958;8.284;2023-11-21T15:42:30;2.40;;;2.00;;
30707;SDS011;17458;48.958;8.284;2023-11-21T15:45:14;9.73;;;3.50;;
30707;SDS011;17458;48.958;8.284;2023-11-21T15:47:58;7.75;;;2.75;;
30707;SDS011;17458;48.958;8.284;2023-11-21T15:50:44;5.28;;;2.58;;
30707;SDS011;17458;48.958;8.284;2023-11-21T15:53:28;4.47;;;2.95;;
30707;SDS011;17458;48.958;8.284;2023-11-21T15:56:12;4.10;;;2.90;;
30707;SDS011;17458;48.958;8.284;2023-11-21T15:58:56;3.70;;;2.65;;
30707;SDS011;17458;48.958;8.284;2023-11-21T16:01:40;4.30;;;2.42;;
30707;SDS011;17458;48.958;8.284;2023-11-21T16:04:27;3.15;;;2.85;;
30707;SDS011;17458;48.958;8.284;2023-11-21T16:07:11;5.00;;;2.78;;
30707;SDS011;17458;48.958;8.284;2023-11-21T16:09:55;10.15;;;3.10;;
30707;SDS011;17458;48.958;8.284;2023-11-21T16:12:41;7.72;;;5.57;;
30707;SDS011;17458;48.958;8.284;2023-11-21T16:15:26;9.45;;;6.30;;
30707;SDS011;17458;48.958;8.284;2023-11-21T16:18:10;7.63;;;4.82;;
30707;SDS011;17458;48.958;8.284;2023-11-21T16:20:55;5.03;;;4.15;;
30707;SDS011;17458;48.958;8.284;2023-11-21T16:23:39;8.57;;;3.80;;
30707;SDS011;17458;48.958;8.284;2023-11-21T16:26:23;10.63;;;4.05;;
30707;SDS011;17458;48.958;8.284;2023-11-21T16:29:07;8.60;;;3.35;;
30707;SDS011;17458;48.958;8.284;2023-11-21T16:31:51;5.85;;;3.78;;
30707;SDS011;17458;48.958;8.284;2023-11-21T16:34:36;8.18;;;4.22;;
30707;SDS011;17458;48.958;8.284;2023-11-21T16:37:20;5.53;;;3.53;;
30707;SDS011;17458;48.958;8.284;2023-11-21T16:40:04;8.18;;;4.28;;
30707;SDS011;17458;48.958;8.284;2023-11-21T16:42:52;9.85;;;4.90;;
30707;SDS011;17458;48.958;8.284;2023-11-21T16:45:36;20.52;;;12.15;;
30707;SDS011;17458;48.958;8.284;2023-11-21T16:48:21;17.33;;;11.23;;